Zieglersville, Pennsylvania
Current Conditions -  °F | °C
As of 5:54 PM on Thursday 23 Oct 2014 (Local Time) from KPTW Reporting Station
Broken Clouds Broken Clouds  
Wind Chill: 53°   Ceiling: 8000
Heat Index: 53°   Visibility: 10mi
Dew Point: 43°   Wind: 10mph
Humidity: 69%   Direction: 330°NNW
Pressure: 29.82"   Gusts: 20mph
Location:  40.2761°N, 75.4823°W
Report Text: KPTW 232154Z AUTO 33009G17KT 10SM SCT031 BKN080 BKN090 12/06 A2982 RMK AO2 SLP097 T01170061
Loading
Personal Weather Stations






























Interactive Weather Map
Tropical Storm Tracking
New forecast layout! Learn more

10-Day Weather Forecast

Advertisements
Track Severe Weather on mobile